Friday, July 20, 2018, 12:40 PM EDT
Back to Local

KJST, Johnstown-cambria Co Airport

Location: Johnstown, PA, United States Lat: 40.317
Local Time: 12:40 PM EDT (16:40 GMT) Lon: -78.833
Time Zone: US/Eastern Elev: 2283 ft

Show me the last for .
Show Decoded

2018-07-20 11:54 METAR KJST 201554Z AUTO 14012G19KT 10SM CLR 24/16 A3011 RMK AO2 SLP183 T02440161
                 =
2018-07-20 10:54 METAR KJST 201454Z AUTO 15011G18KT 10SM CLR 23/16 A3012 RMK AO2 SLP186 T02330156
                 58003 =
2018-07-20 09:54 METAR KJST 201354Z AUTO 18014KT 10SM CLR 23/16 A3012 RMK AO2 SLP187 T02280156 =
2018-07-20 08:54 METAR KJST 201254Z AUTO 18008KT 10SM CLR 21/16 A3014 RMK AO2 SLP192 T02110156 =
2018-07-20 07:54 METAR KJST 201154Z AUTO 17008KT 10SM CLR 19/15 A3013 RMK AO2 SLP189 T01940150
                 10194 20167 53004 =
2018-07-20 06:54 METAR KJST 201054Z AUTO 15007KT 10SM CLR 18/14 A3012 RMK AO2 SLP186 T01780139 =
2018-07-20 05:54 METAR KJST 200954Z AUTO 15006KT 10SM CLR 17/13 A3012 RMK AO2 SLP185 T01670133 =
2018-07-20 04:54 METAR KJST 200854Z AUTO 14007KT 10SM CLR 17/14 A3012 RMK AO2 SLP185 T01720139
                 58002 =
2018-07-20 03:54 METAR KJST 200754Z AUTO 16009KT 10SM CLR 17/14 A3013 RMK AO2 SLP187 T01720139 =
2018-07-20 02:54 METAR KJST 200654Z AUTO 16009KT 10SM CLR 18/14 A3012 RMK AO2 SLP187 T01780139 =
2018-07-20 01:54 METAR KJST 200554Z AUTO 16007KT 10SM CLR 18/13 A3012 RMK AO2 SLP187 T01830133
                 10222 20183 58001 =
2018-07-20 00:54 METAR KJST 200454Z AUTO 16007KT 10SM CLR 18/13 A3014 RMK AO2 SLP192 T01830133
                 402560133 =
2018-07-19 23:54 METAR KJST 200354Z AUTO 15006KT 10SM CLR 19/14 A3013 RMK AO2 SLP190 T01890139 =
2018-07-19 22:54 METAR KJST 200254Z AUTO 14006KT 10SM CLR 19/14 A3013 RMK AO2 SLP189 T01940139
                 52004 =
2018-07-19 21:54 METAR KJST 200154Z AUTO 14004KT 10SM CLR 19/14 A3012 RMK AO2 SLP188 T01940139 =
2018-07-19 20:54 METAR KJST 200054Z AUTO 14004KT 10SM CLR 20/14 A3012 RMK AO2 SLP188 T02000139 =
2018-07-19 19:54 METAR KJST 192354Z AUTO 15004KT 10SM CLR 22/14 A3011 RMK AO2 SLP185 T02220139
                 10256 20222 56004 =
2018-07-19 18:54 METAR KJST 192254Z AUTO 14006KT 10SM CLR 24/13 A3011 RMK AO2 SLP186 T02390128 =
2018-07-19 17:54 METAR KJST 192154Z AUTO 14006KT 10SM CLR 24/14 A3011 RMK AO2 SLP187 T02440139 =
2018-07-19 16:54 METAR KJST 192054Z AUTO 13005KT 10SM CLR 25/13 A3012 RMK AO2 SLP190 T02500128
                 56007 =
2018-07-19 15:54 METAR KJST 191954Z AUTO 19008KT 10SM SCT046 25/14 A3013 RMK AO2 SLP188 T02500139
                 =
2018-07-19 14:54 METAR KJST 191854Z AUTO 17007KT 10SM SCT047 25/14 A3013 RMK AO2 SLP191 T02500144
                 =
2018-07-19 13:54 METAR KJST 191754Z AUTO 22005KT 10SM CLR 24/12 A3015 RMK AO2 SLP196 T02390122
                 10244 20172 58007 =
2018-07-19 12:54 METAR KJST 191654Z AUTO 25006KT 10SM SCT044 23/12 A3016 RMK AO2 SLP199 T02280122
                 =

Support USWX by starting your Amazon purchase here.